Terminal Aerodrome Forecast
Issued by NWS Dallas/Fort Worth, TX

Current Version | Previous Version | Text Only | Print | Product List | Glossary On
Versions: 1 2 3 4 5 6 7 8 9 10 11 12 13 14 15 16 17 18 19 20 21 22 23 24 25 26 27 28 29 30 31 32 33 34 35 36 37 38 39 40 41 42 43 44
000
FTUS44 KFWD 261130
TAFACT
TAF
KACT 261130Z 2612/2712 14010KT 2SM BR OVC003
      TEMPO 2612/2614 1/2SM FG OVC002
     FM261500 17012KT P6SM BKN015
     FM262200 17013KT P6SM VCTS SCT035CB BKN300
     FM270100 15009KT P6SM SCT035 BKN100
     FM270800 17008KT P6SM BKN008=

USA.gov is the U.S. government's official web portal to all federal, state and local government web resources and services.